Time;durP1;ratioP1;P1;durP2;ratioP2;P2;SDS_P1;SDS_P2;PMS_P1;PMS_P2;Temp;Humidity;BMP_temperature;BMP_pressure;BME280_temperature;BME280_humidity;BME280_pressure;Samples;Min_cycle;Max_cycle;Signal;HPM_P1;HPM_P2
2022/05/30 00:02:03;;;;;;;6.18;3.90;;;;;;;-147.90;100.00;59510.75;4963242;28;20047;-84
2022/05/30 00:04:30;;;;;;;6.15;4.55;;;;;;;-147.90;100.00;59510.75;4965824;28;20051;-83
2022/05/30 00:06:56;;;;;;;10.82;4.50;;;;;;;-147.90;100.00;59510.75;4963489;28;20051;-82
2022/05/30 00:09:23;;;;;;;6.47;4.10;;;;;;;-147.90;100.00;59510.75;4965067;28;20050;-83
2022/05/30 00:11:51;;;;;;;6.22;4.57;;;;;;;-147.90;100.00;59510.75;4964137;28;20047;-82
2022/05/30 00:14:18;;;;;;;8.88;4.60;;;;;;;-147.90;100.00;59510.75;4964610;28;20165;-83
2022/05/30 00:16:45;;;;;;;7.18;4.78;;;;;;;-147.90;100.00;59510.75;4964369;28;20042;-83
2022/05/30 00:19:13;;;;;;;7.00;4.05;;;;;;;-147.90;100.00;59510.75;4964013;28;20047;-83
2022/05/30 00:21:40;;;;;;;6.55;4.25;;;;;;;-147.90;100.00;59510.75;4964966;28;20051;-82
2022/05/30 00:24:07;;;;;;;6.53;4.10;;;;;;;-147.90;100.00;59510.75;4963887;28;20046;-83
2022/05/30 00:26:34;;;;;;;7.75;4.03;;;;;;;-147.90;100.00;59510.75;4965108;28;20500;-84
2022/05/30 00:29:01;;;;;;;8.50;4.68;;;;;;;-147.90;100.00;59510.75;4963138;28;20054;-82
2022/05/30 00:31:27;;;;;;;8.45;4.38;;;;;;;-147.90;100.00;59510.75;4962892;28;20444;-83
2022/05/30 00:33:54;;;;;;;7.97;4.22;;;;;;;-147.90;100.00;59510.75;4962491;28;20051;-83
2022/05/30 00:36:23;;;;;;;7.90;4.63;;;;;;;-147.90;100.00;59510.75;4963550;28;20072;-83
2022/05/30 00:38:49;;;;;;;10.38;4.75;;;;;;;-147.90;100.00;59510.75;4962517;28;20440;-84
2022/05/30 00:41:17;;;;;;;7.97;4.63;;;;;;;-147.90;100.00;59510.75;4962491;28;20106;-83
2022/05/30 00:43:45;;;;;;;8.05;5.50;;;;;;;-147.90;100.00;59510.75;4961063;28;20050;-84
2022/05/30 00:46:15;;;;;;;7.82;5.22;;;;;;;-147.90;100.00;59510.75;4962488;28;20129;-82
2022/05/30 00:48:47;;;;;;;8.75;4.57;;;;;;;-147.90;100.00;59510.75;4962473;28;20114;-83
2022/05/30 00:51:18;;;;;;;8.60;5.28;;;;;;;-147.90;100.00;59510.75;4962226;28;20055;-83
2022/05/30 00:53:50;;;;;;;8.57;5.30;;;;;;;-147.90;100.00;59510.75;4960579;28;20050;-83
2022/05/30 00:56:17;;;;;;;7.88;4.57;;;;;;;-147.90;100.00;59510.75;4961546;28;20094;-83
2022/05/30 00:58:47;;;;;;;8.80;4.68;;;;;;;-147.90;100.00;59510.75;4960585;28;20046;-84
2022/05/30 01:01:14;;;;;;;9.73;4.70;;;;;;;-147.90;100.00;59510.75;4961375;28;20509;-83
2022/05/30 01:06:34;;;;;;;7.75;4.70;;;;;;;-147.90;100.00;59510.75;4962039;28;20069;-83
2022/05/30 01:09:11;;;;;;;7.60;4.65;;;;;;;-147.90;100.00;59510.75;4961065;28;20102;-84
2022/05/30 01:11:57;;;;;;;6.03;4.25;;;;;;;-147.90;100.00;59510.75;4963661;28;20047;-84
2022/05/30 01:14:27;;;;;;;5.60;3.75;;;;;;;-147.90;100.00;59510.75;4961864;28;20113;-83
2022/05/30 01:16:54;;;;;;;8.05;4.45;;;;;;;-147.90;100.00;59510.75;4961467;28;20055;-83
2022/05/30 01:19:37;;;;;;;7.38;3.90;;;;;;;-147.90;100.00;59510.75;4961810;28;20090;-83
2022/05/30 01:22:23;;;;;;;6.75;3.65;;;;;;;-147.90;100.00;59510.75;4960574;28;20130;-84
2022/05/30 01:25:01;;;;;;;5.40;3.22;;;;;;;-147.90;100.00;59510.75;4962670;28;20113;-83
2022/05/30 01:27:39;;;;;;;7.65;3.50;;;;;;;-147.90;100.00;59510.75;4965334;28;20058;-82
2022/05/30 01:30:11;;;;;;;5.38;3.30;;;;;;;-147.90;100.00;59510.75;4963871;28;20094;-82
2022/05/30 01:32:38;;;;;;;5.57;3.95;;;;;;;-147.90;100.00;59510.75;4964889;28;20115;-84
2022/05/30 01:35:05;;;;;;;4.88;3.30;;;;;;;-147.90;100.00;59510.75;4962195;28;20098;-82
2022/05/30 01:37:32;;;;;;;7.28;3.85;;;;;;;-147.90;100.00;59510.75;4964118;28;20050;-83
2022/05/30 01:39:59;;;;;;;6.20;3.95;;;;;;;-147.90;100.00;59510.75;4964730;28;20065;-82
2022/05/30 01:42:26;;;;;;;7.32;4.22;;;;;;;-147.90;100.00;59510.75;4962807;28;20047;-82
2022/05/30 01:44:52;;;;;;;8.05;5.03;;;;;;;-147.90;100.00;59510.75;4963725;28;20141;-82
2022/05/30 01:47:21;;;;;;;8.32;5.55;;;;;;;-147.90;100.00;59510.75;4961499;28;20051;-82
2022/05/30 01:49:47;;;;;;;7.30;4.65;;;;;;;-147.90;100.00;59510.75;4961755;28;20484;-82
2022/05/30 01:52:14;;;;;;;7.47;4.90;;;;;;;-147.90;100.00;59510.75;4961938;28;20051;-83
2022/05/30 01:54:41;;;;;;;7.47;4.95;;;;;;;-147.90;100.00;59510.75;4962551;28;20043;-84
2022/05/30 01:57:08;;;;;;;9.25;5.63;;;;;;;-147.90;100.00;59510.75;4962113;28;20046;-82
2022/05/30 01:59:34;;;;;;;8.00;5.50;;;;;;;-147.90;100.00;59510.75;4968470;28;20046;-82
2022/05/30 02:02:01;;;;;;;8.43;5.80;;;;;;;-147.90;100.00;59510.75;4971346;28;20046;-82
2022/05/30 02:04:29;;;;;;;7.97;5.07;;;;;;;-147.90;100.00;59510.75;4971541;28;20168;-82
2022/05/30 02:06:56;;;;;;;8.75;5.15;;;;;;;-147.90;100.00;59510.75;4971653;28;20093;-83
2022/05/30 02:09:23;;;;;;;6.22;4.07;;;;;;;-147.90;100.00;59510.75;4971451;28;20096;-82
2022/05/30 02:11:50;;;;;;;6.63;4.45;;;;;;;-147.90;100.00;59510.75;4969499;28;20130;-82
2022/05/30 02:14:17;;;;;;;8.90;4.72;;;;;;;-147.90;100.00;59510.75;4971213;28;20424;-83
2022/05/30 02:17:04;;;;;;;7.68;4.70;;;;;;;-147.90;100.00;59510.75;4970962;28;20047;-83
2022/05/30 02:19:35;;;;;;;6.93;3.85;;;;;;;-147.90;100.00;59510.75;4970695;28;20115;-82
2022/05/30 02:22:02;;;;;;;9.00;4.55;;;;;;;-147.90;100.00;59510.75;4971307;28;20046;-82
2022/05/30 02:24:29;;;;;;;13.68;6.07;;;;;;;-147.90;100.00;59510.75;4970798;28;20469;-82
2022/05/30 02:26:56;;;;;;;12.45;6.13;;;;;;;-147.90;100.00;59510.75;4970946;28;20098;-83
2022/05/30 02:29:23;;;;;;;12.98;6.45;;;;;;;-147.90;100.00;59510.75;4969019;28;20101;-82
2022/05/30 02:31:50;;;;;;;14.75;7.65;;;;;;;-147.90;100.00;59510.75;4971070;28;20039;-83
2022/05/30 02:37:03;;;;;;;16.23;7.90;;;;;;;-147.90;100.00;59510.75;4970210;28;20109;-83
2022/05/30 02:39:31;;;;;;;16.27;7.00;;;;;;;-147.90;100.00;59510.75;4970735;28;20047;-82
2022/05/30 02:41:58;;;;;;;17.75;8.27;;;;;;;-147.90;100.00;59510.75;4971275;28;20133;-84
2022/05/30 02:44:26;;;;;;;15.23;8.20;;;;;;;-147.90;100.00;59510.75;4971033;28;20051;-82
2022/05/30 02:46:57;;;;;;;18.83;8.18;;;;;;;-147.90;100.00;59510.75;4968848;28;20046;-82
2022/05/30 02:49:24;;;;;;;13.95;7.22;;;;;;;-147.90;100.00;59510.75;4968708;28;20101;-82
2022/05/30 02:51:51;;;;;;;18.45;8.98;;;;;;;-147.90;100.00;59510.75;4970619;28;20043;-83
2022/05/30 02:54:20;;;;;;;18.20;7.70;;;;;;;-147.90;100.00;59510.75;4970516;28;20046;-83
2022/05/30 02:56:50;;;;;;;16.33;7.60;;;;;;;-147.90;100.00;59510.75;4970957;28;20046;-82
2022/05/30 02:59:17;;;;;;;17.23;7.80;;;;;;;-147.90;100.00;59510.75;4970998;28;20050;-82
2022/05/30 03:01:44;;;;;;;14.25;7.57;;;;;;;-147.90;100.00;59510.75;4970735;28;20051;-82
2022/05/30 03:04:11;;;;;;;15.95;7.97;;;;;;;-147.90;100.00;59510.75;4968669;28;20078;-83
2022/05/30 03:06:39;;;;;;;14.80;7.15;;;;;;;-147.90;100.00;59510.75;4970448;28;20485;-82
2022/05/30 03:09:06;;;;;;;12.77;7.68;;;;;;;-147.90;100.00;59510.75;4970390;28;20121;-82
2022/05/30 03:11:34;;;;;;;12.65;7.65;;;;;;;-147.90;100.00;59510.75;4970522;28;20105;-82
2022/05/30 03:14:01;;;;;;;15.23;8.48;;;;;;;-147.90;100.00;59510.75;4970667;28;20067;-82
2022/05/30 03:16:28;;;;;;;15.32;8.57;;;;;;;-147.90;100.00;59510.75;4970472;28;20560;-81
2022/05/30 03:18:55;;;;;;;17.65;9.63;;;;;;;-147.90;100.00;59510.75;4970751;28;20055;-82
2022/05/30 03:21:22;;;;;;;17.73;9.38;;;;;;;-147.90;100.00;59510.75;4970365;28;20047;-82
2022/05/30 03:23:48;;;;;;;17.08;9.32;;;;;;;-147.90;100.00;59510.75;4970474;28;20046;-82
2022/05/30 03:26:17;;;;;;;15.57;9.20;;;;;;;-147.90;100.00;59510.75;4970338;28;20039;-84
2022/05/30 03:28:45;;;;;;;15.13;8.85;;;;;;;-147.90;100.00;59510.75;4968270;28;20053;-84
2022/05/30 03:31:12;;;;;;;18.13;8.48;;;;;;;-147.90;100.00;59510.75;4970259;28;20441;-84
2022/05/30 03:33:40;;;;;;;13.18;8.18;;;;;;;-147.90;100.00;59510.75;4970247;28;20061;-82
2022/05/30 03:36:13;;;;;;;13.10;7.45;;;;;;;-147.90;100.00;59510.75;4972151;28;20051;-83
2022/05/30 03:38:40;;;;;;;11.18;6.80;;;;;;;-147.90;100.00;59510.75;4973942;28;20101;-83
2022/05/30 03:41:06;;;;;;;10.68;6.47;;;;;;;-147.90;100.00;59510.75;4973951;28;20489;-82
2022/05/30 03:43:33;;;;;;;8.32;5.57;;;;;;;-147.90;100.00;59510.75;4973922;28;20042;-82
2022/05/30 03:46:01;;;;;;;8.88;5.57;;;;;;;-147.90;100.00;59510.75;4973854;28;20078;-82
2022/05/30 03:48:28;;;;;;;10.70;5.85;;;;;;;-147.90;100.00;59510.75;4973788;28;20055;-82
2022/05/30 03:50:55;;;;;;;9.77;5.88;;;;;;;-147.90;100.00;59510.75;4973682;28;20043;-82
2022/05/30 03:53:22;;;;;;;10.90;6.00;;;;;;;-147.90;100.00;59510.75;4974200;28;20043;-82
2022/05/30 03:55:49;;;;;;;9.18;5.70;;;;;;;-147.90;100.00;59510.75;4972121;28;20043;-82
2022/05/30 03:58:15;;;;;;;11.02;5.78;;;;;;;-147.90;100.00;59510.75;4973757;28;20042;-82
2022/05/30 04:00:44;;;;;;;8.65;5.80;;;;;;;-147.90;100.00;59510.75;4973677;28;20489;-82
2022/05/30 04:03:12;;;;;;;10.57;6.45;;;;;;;-147.90;100.00;59510.75;4973796;28;20124;-82
2022/05/30 04:05:39;;;;;;;8.15;5.25;;;;;;;-147.90;100.00;59510.75;4973864;28;20046;-83
2022/05/30 04:08:07;;;;;;;11.07;6.65;;;;;;;-147.90;100.00;59510.75;4971940;28;20047;-82
2022/05/30 04:10:34;;;;;;;8.25;5.75;;;;;;;-147.90;100.00;59510.75;4973275;28;21586;-84
2022/05/30 04:13:02;;;;;;;9.48;5.88;;;;;;;-147.90;100.00;59510.75;4973876;28;20102;-83
2022/05/30 04:15:29;;;;;;;9.65;5.63;;;;;;;-147.90;100.00;59510.75;4973182;28;20110;-82
2022/05/30 04:17:56;;;;;;;8.40;5.90;;;;;;;-147.90;100.00;59510.75;4973300;28;20481;-82
2022/05/30 04:20:24;;;;;;;7.93;4.97;;;;;;;-147.90;100.00;59510.75;4971910;28;20179;-82
2022/05/30 04:22:51;;;;;;;9.20;5.13;;;;;;;-147.90;100.00;59510.75;4973284;28;20494;-82
2022/05/30 04:25:18;;;;;;;7.10;5.03;;;;;;;-147.90;100.00;59510.75;4973141;28;20050;-82
2022/05/30 04:28:04;;;;;;;5.55;4.20;;;;;;;-147.90;100.00;59510.75;4972888;28;20451;-82
2022/05/30 04:30:31;;;;;;;5.15;4.20;;;;;;;-147.90;100.00;59510.75;4972334;28;20118;-82
2022/05/30 04:32:58;;;;;;;8.95;4.70;;;;;;;-147.90;100.00;59510.75;4973692;28;20050;-83
2022/05/30 04:35:26;;;;;;;6.85;3.85;;;;;;;-147.90;100.00;59510.75;4973138;28;20508;-84
2022/05/30 04:37:53;;;;;;;7.28;4.35;;;;;;;-147.90;100.00;59510.75;4971848;28;20042;-84
2022/05/30 04:40:20;;;;;;;10.13;4.30;;;;;;;-147.90;100.00;59510.75;4972856;28;20124;-86
2022/05/30 04:42:47;;;;;;;8.73;4.60;;;;;;;-147.90;100.00;59510.75;4973169;28;20043;-83
2022/05/30 04:45:14;;;;;;;6.70;3.95;;;;;;;-147.90;100.00;59510.75;4973067;28;20046;-83
2022/05/30 04:47:42;;;;;;;6.45;4.05;;;;;;;-147.90;100.00;59510.75;4972877;28;20133;-82
2022/05/30 04:50:13;;;;;;;11.00;5.03;;;;;;;-147.90;100.00;59510.75;4971224;28;20102;-82
2022/05/30 04:52:42;;;;;;;10.55;4.70;;;;;;;-147.90;100.00;59510.75;4971158;28;20114;-83
2022/05/30 04:55:09;;;;;;;7.22;4.63;;;;;;;-147.90;100.00;59510.75;4972551;28;20477;-83
2022/05/30 04:57:41;;;;;;;7.20;4.28;;;;;;;-147.90;100.00;59510.75;4972472;28;20046;-82
2022/05/30 05:00:09;;;;;;;8.23;4.68;;;;;;;-147.90;100.00;59510.75;4972656;28;20472;-82
2022/05/30 05:02:36;;;;;;;8.40;4.65;;;;;;;-147.90;100.00;59510.75;4972554;28;20065;-83
2022/05/30 05:05:03;;;;;;;8.35;4.63;;;;;;;-147.90;100.00;59510.75;4972479;28;20047;-83
2022/05/30 05:07:36;;;;;;;9.15;4.57;;;;;;;-147.90;100.00;59510.75;4972286;28;20054;-82
2022/05/30 05:10:06;;;;;;;7.55;4.40;;;;;;;-147.90;100.00;59510.75;4971578;28;20101;-81
2022/05/30 05:12:33;;;;;;;7.38;4.75;;;;;;;-147.90;100.00;59510.75;4972359;28;20082;-80
2022/05/30 05:15:00;;;;;;;10.55;5.00;;;;;;;-147.90;100.00;59510.75;4972475;28;20117;-81
2022/05/30 05:17:26;;;;;;;9.85;5.38;;;;;;;-147.90;100.00;59510.75;4972315;28;20492;-80
2022/05/30 05:19:53;;;;;;;8.02;4.78;;;;;;;-147.90;100.00;59510.75;4972108;28;20110;-81
2022/05/30 05:22:20;;;;;;;10.60;6.18;;;;;;;-147.90;100.00;59510.75;4972416;28;20047;-81
2022/05/30 05:24:47;;;;;;;9.10;5.05;;;;;;;-147.90;100.00;59510.75;4972441;28;20540;-80
2022/05/30 05:27:17;;;;;;;6.97;4.07;;;;;;;-147.90;100.00;59510.75;4970341;28;20089;-81
2022/05/30 05:29:44;;;;;;;6.75;3.95;;;;;;;-147.90;100.00;59510.75;4971813;28;20548;-81
2022/05/30 05:32:10;;;;;;;7.45;4.18;;;;;;;-147.90;100.00;59510.75;4971942;28;20493;-80
2022/05/30 05:34:37;;;;;;;8.07;5.10;;;;;;;-147.90;100.00;59510.75;4971696;28;20059;-80
2022/05/30 05:37:04;;;;;;;10.10;5.75;;;;;;;-147.90;100.00;59510.75;4972878;28;20097;-80
2022/05/30 05:39:31;;;;;;;11.88;5.28;;;;;;;-147.90;100.00;59510.75;4970306;28;20097;-79
2022/05/30 05:41:58;;;;;;;8.90;5.32;;;;;;;-147.90;100.00;59510.75;4971925;28;20476;-79
2022/05/30 05:44:26;;;;;;;10.55;5.80;;;;;;;-147.90;100.00;59510.75;4971704;28;20047;-78
2022/05/30 05:46:57;;;;;;;11.73;5.38;;;;;;;-147.90;100.00;59510.75;4971821;28;20122;-78
2022/05/30 05:49:23;;;;;;;10.95;5.88;;;;;;;-147.90;100.00;59510.75;4971694;28;20098;-78
2022/05/30 05:51:53;;;;;;;16.05;7.10;;;;;;;-147.90;100.00;59510.75;4971883;28;20047;-78
2022/05/30 05:54:22;;;;;;;19.50;8.88;;;;;;;-147.90;100.00;59510.75;4970023;28;20056;-78
2022/05/30 05:56:49;;;;;;;21.77;9.25;;;;;;;-147.90;100.00;59510.75;4969936;28;20125;-78
2022/05/30 05:59:17;;;;;;;24.25;9.88;;;;;;;-147.90;100.00;59510.75;4971240;28;20046;-78
2022/05/30 06:01:45;;;;;;;29.42;12.38;;;;;;;-147.90;100.00;59510.75;4971442;28;20058;-78
2022/05/30 06:04:12;;;;;;;36.97;15.27;;;;;;;-147.90;100.00;59510.75;4971462;28;20051;-79
2022/05/30 06:06:39;;;;;;;33.05;15.05;;;;;;;-147.90;100.00;59510.75;4971422;28;20047;-78
2022/05/30 06:09:06;;;;;;;38.42;16.58;;;;;;;-147.90;100.00;59510.75;4971260;28;20051;-78
2022/05/30 06:11:34;;;;;;;44.78;19.02;;;;;;;-147.90;100.00;59510.75;4971184;28;20054;-79
2022/05/30 06:14:01;;;;;;;40.25;15.50;;;;;;;-147.90;100.00;59510.75;4971282;28;20053;-78
2022/05/30 06:16:31;;;;;;;42.13;17.05;;;;;;;-147.90;100.00;59510.75;4971208;28;20097;-78
2022/05/30 06:19:01;;;;;;;49.33;18.48;;;;;;;-147.90;100.00;59510.75;4969928;28;20067;-79
2022/05/30 06:21:30;;;;;;;49.08;18.50;;;;;;;-147.90;100.00;59510.75;4969739;28;20094;-79
2022/05/30 06:23:58;;;;;;;40.75;15.50;;;;;;;-147.90;100.00;59510.75;4969583;28;20101;-78
2022/05/30 06:26:26;;;;;;;31.02;11.90;;;;;;;-147.90;100.00;59510.75;4970955;28;20046;-79
2022/05/30 06:28:54;;;;;;;35.38;14.45;;;;;;;-147.90;100.00;59510.75;4970927;28;20085;-78
2022/05/30 06:31:23;;;;;;;38.05;15.10;;;;;;;-147.90;100.00;59510.75;4971162;28;20047;-79
2022/05/30 06:33:50;;;;;;;34.63;14.27;;;;;;;-147.90;100.00;59510.75;4970704;28;20073;-79
2022/05/30 06:36:21;;;;;;;30.95;13.32;;;;;;;-147.90;100.00;59510.75;4970932;28;20046;-78
2022/05/30 06:38:48;;;;;;;26.27;12.65;;;;;;;-147.90;100.00;59510.75;4970836;28;20449;-79
2022/05/30 06:41:16;;;;;;;34.10;13.93;;;;;;;-147.90;100.00;59510.75;4970913;28;20096;-79
2022/05/30 06:43:45;;;;;;;28.20;14.15;;;;;;;-147.90;100.00;59510.75;4969413;28;20051;-79
2022/05/30 06:46:13;;;;;;;30.73;12.57;;;;;;;-147.90;100.00;59510.75;4969196;28;20445;-79
2022/05/30 06:48:41;;;;;;;32.97;13.70;;;;;;;-147.90;100.00;59510.75;4970873;28;20038;-79
2022/05/30 06:51:10;;;;;;;31.38;12.95;;;;;;;-147.90;100.00;59510.75;4970713;28;20386;-79
2022/05/30 06:53:40;;;;;;;23.65;10.20;;;;;;;-147.90;100.00;59510.75;4970533;28;20047;-80
2022/05/30 06:56:12;;;;;;;28.35;11.32;;;;;;;-147.90;100.00;59510.75;4970870;28;20051;-80
2022/05/30 06:58:39;;;;;;;22.77;10.00;;;;;;;-147.90;100.00;59510.75;4970727;28;20134;-79
2022/05/30 07:01:06;;;;;;;26.30;11.35;;;;;;;-147.90;100.00;59510.75;4970718;28;20054;-79
2022/05/30 07:03:34;;;;;;;31.00;11.95;;;;;;;-147.90;100.00;59510.75;4970560;28;20540;-80
2022/05/30 07:06:03;;;;;;;33.88;13.65;;;;;;;-147.90;100.00;59510.75;4968694;28;20051;-79
2022/05/30 07:08:30;;;;;;;24.33;9.95;;;;;;;-147.90;100.00;59510.75;4968540;28;20057;-80
2022/05/30 07:10:58;;;;;;;20.83;10.50;;;;;;;-147.90;100.00;59510.75;4972062;28;20055;-80
2022/05/30 07:13:26;;;;;;;20.23;9.35;;;;;;;-147.90;100.00;59510.75;4972415;28;20109;-80
2022/05/30 07:15:52;;;;;;;18.13;8.68;;;;;;;-147.90;100.00;59510.75;4974534;28;20489;-81
2022/05/30 07:18:19;;;;;;;22.05;8.50;;;;;;;-147.90;100.00;59510.75;4974456;28;20043;-80
2022/05/30 07:20:47;;;;;;;18.08;7.88;;;;;;;-147.90;100.00;59510.75;4974267;28;20047;-80
2022/05/30 07:23:14;;;;;;;18.52;8.00;;;;;;;-147.90;100.00;59510.75;4974282;28;20042;-80
2022/05/30 07:25:42;;;;;;;19.45;8.20;;;;;;;-147.90;100.00;59510.75;4974448;28;20051;-81
2022/05/30 07:28:12;;;;;;;19.52;8.85;;;;;;;-147.90;100.00;59510.75;4974236;28;20055;-80
2022/05/30 07:30:39;;;;;;;18.08;6.93;;;;;;;-147.90;100.00;59510.75;4974422;28;20057;-80
2022/05/30 07:33:07;;;;;;;17.17;6.57;;;;;;;-147.90;100.00;59510.75;4972074;28;20047;-80
2022/05/30 07:35:33;;;;;;;18.48;7.05;;;;;;;-147.90;100.00;59510.75;4972692;28;20113;-81
2022/05/30 07:38:00;;;;;;;19.40;7.50;;;;;;;-147.90;100.00;59510.75;4972955;28;20445;-80
2022/05/30 07:40:27;;;;;;;10.25;5.05;;;;;;;-147.90;100.00;59510.75;4972844;28;20425;-81
2022/05/30 07:42:54;;;;;;;16.80;6.35;;;;;;;-147.90;100.00;59510.75;4970965;28;20047;-82
2022/05/30 07:45:23;;;;;;;12.48;5.75;;;;;;;-147.90;100.00;59510.75;4972640;28;20043;-82
2022/05/30 07:47:49;;;;;;;11.75;5.20;;;;;;;-147.90;100.00;59510.75;4972630;28;20089;-82
2022/05/30 07:50:16;;;;;;;12.32;5.90;;;;;;;-147.90;100.00;59510.75;4972923;28;20043;-82
2022/05/30 07:52:43;;;;;;;12.60;4.97;;;;;;;-147.90;100.00;59510.75;4972529;28;20137;-83
2022/05/30 07:55:10;;;;;;;10.13;5.47;;;;;;;-147.90;100.00;59510.75;4972655;28;20043;-82
2022/05/30 07:57:52;;;;;;;11.70;5.57;;;;;;;-147.90;100.00;59510.75;4972512;28;20110;-82
2022/05/30 08:00:20;;;;;;;8.82;4.70;;;;;;;-147.90;100.00;59510.75;4971196;28;20485;-84
2022/05/30 08:02:48;;;;;;;10.70;4.70;;;;;;;-147.90;100.00;59510.75;4972510;28;20051;-82
2022/05/30 08:05:17;;;;;;;9.20;4.18;;;;;;;-147.90;100.00;59510.75;4970735;28;20488;-83
2022/05/30 08:07:44;;;;;;;10.48;4.55;;;;;;;-147.90;100.00;59510.75;4970475;28;20039;-82
2022/05/30 08:10:13;;;;;;;10.35;5.05;;;;;;;-147.90;100.00;59510.75;4972506;28;20465;-83
2022/05/30 08:12:40;;;;;;;9.43;3.10;;;;;;;-147.90;100.00;59510.75;4971924;28;20098;-83
2022/05/30 08:15:08;;;;;;;7.25;3.55;;;;;;;-147.90;100.00;59510.75;4959948;28;20414;-83
2022/05/30 08:17:35;;;;;;;9.68;3.85;;;;;;;-147.90;100.00;59510.75;4965546;28;20050;-83
2022/05/30 08:20:04;;;;;;;9.98;4.03;;;;;;;-147.90;100.00;59510.75;4965059;28;20094;-82
2022/05/30 08:22:33;;;;;;;8.85;3.63;;;;;;;-147.90;100.00;59510.75;4963560;28;20406;-81
2022/05/30 08:25:00;;;;;;;10.93;3.85;;;;;;;-147.90;100.00;59510.75;4963273;28;20134;-81
2022/05/30 08:27:27;;;;;;;10.20;4.30;;;;;;;-147.90;100.00;59510.75;4964535;28;20050;-82
2022/05/30 08:29:54;;;;;;;11.07;4.82;;;;;;;-147.90;100.00;59510.75;4972046;28;20556;-83
2022/05/30 08:32:20;;;;;;;10.32;4.10;;;;;;;-147.90;100.00;59510.75;4929834;28;1224238;-81
2022/05/30 08:34:47;;;;;;;10.82;4.50;;;;;;;-147.90;100.00;59510.75;4973266;28;20481;-81
2022/05/30 08:37:15;;;;;;;10.57;4.63;;;;;;;-147.90;100.00;59510.75;4971207;28;20094;-82
2022/05/30 08:42:29;;;;;;;7.53;2.95;;;;;;;-147.90;100.00;59510.75;4969838;28;20116;-79
2022/05/30 08:44:56;;;;;;;6.90;2.78;;;;;;;-147.90;100.00;59510.75;4972223;28;20497;-81
2022/05/30 08:47:41;;;;;;;6.72;2.67;;;;;;;-147.90;100.00;59510.75;4972424;28;20046;-82
2022/05/30 08:50:15;;;;;;;6.72;2.65;;;;;;;-147.90;100.00;59510.75;4971142;28;20054;-83
2022/05/30 08:53:05;;;;;;;6.05;2.97;;;;;;;-147.90;100.00;59510.75;4972071;28;20094;-81
2022/05/30 08:55:44;;;;;;;5.63;3.42;;;;;;;-147.90;100.00;59510.75;4969538;28;20121;-83
2022/05/30 08:58:19;;;;;;;10.27;3.60;;;;;;;-147.90;100.00;59510.75;4971480;28;20051;-81
2022/05/30 09:00:52;;;;;;;5.63;2.72;;;;;;;-147.90;100.00;59510.75;4970526;28;20563;-83
2022/05/30 09:03:24;;;;;;;7.35;3.25;;;;;;;-147.90;100.00;59510.75;4970554;28;20433;-83
2022/05/30 09:05:56;;;;;;;6.75;3.00;;;;;;;-147.90;100.00;59510.75;4971150;28;20409;-83
2022/05/30 09:08:33;;;;;;;5.72;3.00;;;;;;;-147.90;100.00;59510.75;4972449;28;20051;-82
2022/05/30 09:11:04;;;;;;;6.28;3.08;;;;;;;-147.90;100.00;59510.75;4972278;28;20042;-81
2022/05/30 09:13:35;;;;;;;4.80;2.65;;;;;;;-147.90;100.00;59510.75;4972095;28;20398;-85
2022/05/30 09:16:07;;;;;;;6.75;3.42;;;;;;;-147.90;100.00;59510.75;4972514;28;20042;-84
2022/05/30 09:18:41;;;;;;;8.35;3.22;;;;;;;-147.90;100.00;59510.75;4970587;28;20047;-82
2022/05/30 09:21:08;;;;;;;5.60;3.20;;;;;;;-147.90;100.00;59510.75;4970727;28;20058;-82
2022/05/30 09:23:36;;;;;;;5.78;2.65;;;;;;;-147.90;100.00;59510.75;4970008;28;20042;-83
2022/05/30 09:26:07;;;;;;;6.95;3.60;;;;;;;-147.90;100.00;59510.75;4967983;28;20121;-81
2022/05/30 09:28:36;;;;;;;5.50;2.65;;;;;;;-147.90;100.00;59510.75;4968326;28;20058;-85
2022/05/30 09:31:15;;;;;;;4.85;2.83;;;;;;;-147.90;100.00;59510.75;4970288;28;20413;-83
2022/05/30 09:33:45;;;;;;;4.78;2.90;;;;;;;-147.90;100.00;59510.75;4970133;28;20051;-84
2022/05/30 09:36:17;;;;;;;7.53;3.08;;;;;;;-147.90;100.00;59510.75;4968385;28;20055;-84
2022/05/30 09:38:48;;;;;;;5.35;2.90;;;;;;;-147.90;100.00;59510.75;4969135;28;20050;-81
2022/05/30 09:41:20;;;;;;;8.57;2.97;;;;;;;-147.90;100.00;59510.75;4970833;28;20097;-84
2022/05/30 09:43:54;;;;;;;8.30;3.10;;;;;;;-147.90;100.00;59510.75;4972261;28;20046;-83
2022/05/30 09:46:26;;;;;;;8.38;3.83;;;;;;;-147.90;100.00;59510.75;4970168;28;20117;-83
2022/05/30 09:49:02;;;;;;;8.85;3.67;;;;;;;-147.90;100.00;59510.75;4970162;28;20133;-82
2022/05/30 09:51:39;;;;;;;13.70;3.45;;;;;;;-147.90;100.00;59510.75;4970546;28;20456;-83
2022/05/30 09:54:10;;;;;;;8.85;2.92;;;;;;;-147.90;100.00;59510.75;4966441;28;20046;-82
2022/05/30 09:56:41;;;;;;;8.68;3.92;;;;;;;-147.90;100.00;59510.75;4971462;28;20146;-83
2022/05/30 09:59:19;;;;;;;7.03;4.18;;;;;;;-147.90;100.00;59510.75;4969404;28;20138;-84
2022/05/30 10:01:50;;;;;;;6.97;3.00;;;;;;;-147.90;100.00;59510.75;4970068;28;20485;-83
2022/05/30 10:04:23;;;;;;;6.47;2.92;;;;;;;-147.90;100.00;59510.75;4971178;28;20046;-83
2022/05/30 10:07:13;;;;;;;10.65;5.50;;;;;;;-147.90;100.00;59510.75;4971407;28;20449;-83
2022/05/30 10:09:51;;;;;;;7.38;3.03;;;;;;;-147.90;100.00;59510.75;4971121;28;20050;-83
2022/05/30 10:12:29;;;;;;;8.57;3.10;;;;;;;-147.90;100.00;59510.75;4970025;28;20641;-83
2022/05/30 10:14:56;;;;;;;5.40;2.70;;;;;;;-147.90;100.00;59510.75;4971385;28;20082;-84
2022/05/30 10:17:30;;;;;;;5.45;2.88;;;;;;;-147.90;100.00;59510.75;4971316;28;20093;-83
2022/05/30 10:19:58;;;;;;;6.90;3.95;;;;;;;-147.90;100.00;59510.75;4971494;28;20047;-83
2022/05/30 10:28:39;;;;;;;11.45;3.13;;;;;;;-147.90;100.00;59510.75;4969778;28;20077;-83
2022/05/30 10:31:13;;;;;;;8.20;3.13;;;;;;;-147.90;100.00;59510.75;4969646;28;20050;-83
2022/05/30 10:34:04;;;;;;;10.60;3.58;;;;;;;-147.90;100.00;59510.75;4969613;28;20106;-83
2022/05/30 10:36:40;;;;;;;6.28;3.08;;;;;;;-147.90;100.00;59510.75;4970423;28;20093;-83
2022/05/30 10:39:17;;;;;;;6.60;3.28;;;;;;;-147.90;100.00;59510.75;4971037;28;20051;-83
2022/05/30 10:41:52;;;;;;;7.47;3.90;;;;;;;-147.90;100.00;59510.75;4969942;28;20117;-82
2022/05/30 10:44:24;;;;;;;8.85;3.97;;;;;;;-147.90;100.00;59510.75;4970798;28;20047;-83
2022/05/30 10:46:59;;;;;;;5.90;3.25;;;;;;;-147.90;100.00;59510.75;4970834;28;20050;-84
2022/05/30 10:49:32;;;;;;;6.65;3.22;;;;;;;-147.90;100.00;59510.75;4969671;28;20061;-85
2022/05/30 10:52:03;;;;;;;8.93;3.50;;;;;;;-147.90;100.00;59510.75;4970686;28;20054;-85
2022/05/30 10:54:36;;;;;;;6.32;2.88;;;;;;;-147.90;100.00;59510.75;4970830;28;20051;-83
2022/05/30 10:57:18;;;;;;;6.70;3.15;;;;;;;-147.90;100.00;59510.75;4970769;28;21258;-84
2022/05/30 10:59:50;;;;;;;5.45;3.10;;;;;;;-147.90;100.00;59510.75;4969513;28;20098;-84
2022/05/30 11:02:23;;;;;;;5.93;3.53;;;;;;;-147.90;100.00;59510.75;4970404;28;20051;-83
2022/05/30 11:04:55;;;;;;;11.38;3.40;;;;;;;-147.90;100.00;59510.75;4970581;28;20121;-84
2022/05/30 11:07:39;;;;;;;6.55;3.00;;;;;;;-147.90;100.00;59510.75;4970555;28;20042;-83
2022/05/30 11:10:13;;;;;;;9.25;3.28;;;;;;;-147.90;100.00;59510.75;4970238;28;20441;-83
2022/05/30 11:12:45;;;;;;;6.43;3.90;;;;;;;-147.90;100.00;59510.75;4969007;28;20389;-84
2022/05/30 11:15:20;;;;;;;5.20;3.33;;;;;;;-147.90;100.00;59510.75;4969148;28;20142;-83
2022/05/30 11:17:55;;;;;;;5.00;2.78;;;;;;;-147.90;100.00;59510.75;4969904;28;20133;-82
2022/05/30 11:20:25;;;;;;;8.38;3.17;;;;;;;-147.90;100.00;59510.75;4970389;28;20046;-84
2022/05/30 11:22:55;;;;;;;7.30;3.35;;;;;;;-147.90;100.00;59510.75;4970365;28;20444;-83
2022/05/30 11:25:31;;;;;;;8.30;3.20;;;;;;;-147.90;100.00;59510.75;4970415;28;20133;-83
2022/05/30 11:28:10;;;;;;;7.63;3.22;;;;;;;-147.90;100.00;59510.75;4968972;28;20053;-82
2022/05/30 11:30:46;;;;;;;8.70;4.03;;;;;;;-147.90;100.00;59510.75;4968135;28;20042;-82